Terminal Aerodrome Forecast
Issued by NWS Boston, MA

Home | Current Version | Previous Version | Text Only | Print | Product List | Glossary On
Versions: 1 2 3 4 5 6 7 8 9 10 11 12 13 14 15 16 17 18 19 20 21 22 23 24 25 26 27 28 29 30 31 32 33 34 35 36 37 38 39 40 41 42 43 44 45 46
000
FTUS41 KBOX 300530
TAFBDL
TAF
KBDL 300530Z 3006/3112 19004KT P6SM SCT250
     FM301600 20012KT P6SM VCSH SCT050 BKN250
     FM302000 20012G20KT 5SM SHRA BKN030 BKN050
     FM310100 20007KT P6SM VCSH BKN020
     FM310300 20005KT P6SM BKN040
     FM310800 00000KT 5SM BR FEW250=

USA.gov is the U.S. government's official web portal to all federal, state and local government web resources and services.